Portada
METAR-TAF:

METAR-TAF

Aeropuertos :

Shenandoah Municipal Airport

Shenandoah, Iowa, Estados Unidos

latitud: 40-45N, longitud: 095-25W, altitud: 296 m

Observación

El informe se hizo hace 12 minutos, a las 23:55 UTC
Viento 5 kt del norte
Temperatura 25°C
Humedad 54%
Presión 1021 hPa
Visibilidad: 14.5 km
Cielo despejado

METAR: KSDA 012355Z AUTO 01005KT 9SM CLR 25/15 A3014 RMK AO2

Hora: 19:07 (00:07 UTC)


TAF: falta

Observaciones y pronósticos meteorológicos de más de 4000 aeropuertos (mensajes METAR y TAF).

Los puntos amarillos y rojos representan las estaciones disponibles.

Ponga el ratón en el punto deseado para ver el nombre de la estación.

Haga clic para ver las observaciones y los pronósticos meteorológicos.

Para cambiar el mapa : haga clic en los botones verdes con una cruz de color negro para hacer un zoom, en el botón verde con un guión para alejar o en las flechas verdes para mapas adyacentes.


METAR-TAF: